createdAt,value
2023-10-21T00:00:49.584Z,97981.06
2023-10-21T00:05:17.583Z,98003.56
2023-10-21T00:09:39.497Z,98003.97
2023-10-21T00:13:47.625Z,98017.38
2023-10-21T00:17:55.634Z,98011.50
2023-10-21T00:22:11.633Z,98042.16
2023-10-21T00:26:13.209Z,98044.97
2023-10-21T00:31:15.492Z,98040.06
2023-10-21T00:35:30.459Z,98044.31
2023-10-21T00:39:46.468Z,98040.44
2023-10-21T00:43:54.499Z,98046.94
2023-10-21T00:48:02.600Z,98034.75
2023-10-21T00:52:05.283Z,98053.28
2023-10-21T00:56:15.519Z,98071.13
2023-10-21T01:00:18.128Z,98058.34
2023-10-21T01:04:26.533Z,98074.19
2023-10-21T01:08:34.418Z,98040.53
2023-10-21T01:12:42.486Z,98082.75
2023-10-21T01:16:50.620Z,98074.47
2023-10-21T01:20:55.463Z,98095.19
2023-10-21T01:25:17.498Z,98093.75
2023-10-21T01:29:32.591Z,98103.56
2023-10-21T01:33:34.402Z,98098.13
2023-10-21T01:47:25.470Z,98124.00
2023-10-21T01:51:33.544Z,98136.97
2023-10-21T01:55:49.335Z,98127.28
2023-10-21T01:59:57.461Z,98135.19
2023-10-21T02:04:05.532Z,98143.34
2023-10-21T02:08:13.497Z,98147.84
2023-10-21T02:12:16.119Z,98164.28
2023-10-21T02:16:37.494Z,98167.53
2023-10-21T02:20:52.543Z,98168.97
2023-10-21T02:25:05.573Z,98172.22
2023-10-21T02:29:19.546Z,98183.44
2023-10-21T02:33:27.569Z,98182.41
2023-10-21T02:42:16.526Z,98186.69
2023-10-21T02:46:24.477Z,98181.84
2023-10-21T02:50:32.495Z,98205.25
2023-10-21T02:54:40.467Z,98210.16
2023-10-21T02:59:34.592Z,98217.88
2023-10-21T03:03:51.768Z,98218.88
2023-10-21T03:07:59.424Z,98233.94
2023-10-21T03:12:00.940Z,98225.59
2023-10-21T03:16:21.502Z,98235.13
2023-10-21T03:20:22.981Z,98235.34
2023-10-21T03:24:37.731Z,98237.97
2023-10-21T03:28:46.446Z,98256.72
2023-10-21T03:32:54.600Z,98273.63
2023-10-21T03:37:02.711Z,98276.88
2023-10-21T03:41:26.791Z,98285.22
2023-10-21T03:45:43.583Z,98293.78
2023-10-21T03:54:31.427Z,98301.56
2023-10-21T03:58:34.189Z,98315.81
2023-10-21T04:02:42.591Z,98317.88
2023-10-21T04:06:50.490Z,98311.53
2023-10-21T04:11:01.440Z,98340.03
2023-10-21T04:15:09.578Z,98325.78
2023-10-21T04:19:47.640Z,98352.44
2023-10-21T04:23:55.904Z,98358.78
2023-10-21T04:28:04.565Z,98356.13
2023-10-21T04:32:13.690Z,98354.50
2023-10-21T04:36:26.557Z,98356.72
2023-10-21T04:45:13.568Z,98378.34
2023-10-21T04:49:21.538Z,98378.78
2023-10-21T04:53:23.072Z,98395.50
2023-10-21T04:57:38.505Z,98405.72
2023-10-21T05:01:47.487Z,98379.28
2023-10-21T05:05:55.528Z,98396.59
2023-10-21T05:10:12.484Z,98401.72
2023-10-21T05:14:14.150Z,98424.94
2023-10-21T05:18:22.679Z,98426.41
2023-10-21T05:22:30.472Z,98442.53
2023-10-21T05:26:32.144Z,98449.88
2023-10-21T05:30:53.532Z,98463.53
2023-10-21T05:35:01.430Z,98446.41
2023-10-21T05:39:23.556Z,98479.22
2023-10-21T05:43:31.920Z,98469.44
2023-10-21T05:47:40.608Z,98477.38
2023-10-21T05:51:48.627Z,98506.13
2023-10-21T05:55:50.414Z,98513.47
2023-10-21T05:59:58.592Z,98512.63
2023-10-21T06:08:44.510Z,98521.63
2023-10-21T06:12:59.552Z,98546.91
2023-10-21T06:17:11.746Z,98541.59
2023-10-21T06:21:13.524Z,98571.78
2023-10-21T06:25:28.519Z,98580.13
2023-10-21T06:29:58.543Z,98585.84
2023-10-21T06:38:50.651Z,98619.50
2023-10-21T06:42:52.340Z,98615.22
2023-10-21T06:47:00.569Z,98646.22
2023-10-21T06:51:08.787Z,98634.19
2023-10-21T06:55:18.540Z,98651.53
2023-10-21T06:59:26.669Z,98673.78
2023-10-21T07:03:34.666Z,98653.16
2023-10-21T07:07:49.567Z,98692.34
2023-10-21T07:11:51.453Z,98688.69
2023-10-21T07:15:59.530Z,98715.00
2023-10-21T07:20:07.755Z,98720.94
2023-10-21T07:24:16.523Z,98712.97
2023-10-21T07:28:38.563Z,98743.81
2023-10-21T07:32:54.674Z,98755.22
2023-10-21T07:36:56.411Z,98761.75
2023-10-21T07:46:04.508Z,98799.56
2023-10-21T07:50:20.454Z,98805.28
2023-10-21T07:54:28.511Z,98797.69
2023-10-21T07:58:30.039Z,98801.63
2023-10-21T08:02:38.560Z,98817.16
2023-10-21T08:06:46.638Z,98813.03
2023-10-21T08:10:48.350Z,98839.41
2023-10-21T08:15:04.847Z,98849.00
2023-10-21T08:19:13.508Z,98867.97
2023-10-21T08:23:15.376Z,98865.53
2023-10-21T08:27:24.522Z,98857.97
2023-10-21T08:31:32.491Z,98882.50
2023-10-21T08:35:47.467Z,98877.38
2023-10-21T08:40:02.440Z,98865.53
2023-10-21T08:44:06.673Z,98878.81
2023-10-21T08:48:19.537Z,98868.00
2023-10-21T08:52:27.504Z,98877.81
2023-10-21T08:56:35.525Z,98877.00
2023-10-21T09:00:37.182Z,98860.03
2023-10-21T09:04:45.493Z,98902.94
2023-10-21T09:08:55.556Z,98918.06
2023-10-21T09:12:57.262Z,98936.47
2023-10-21T09:17:05.469Z,98935.06
2023-10-21T09:21:13.473Z,98949.31
2023-10-21T09:25:26.507Z,98925.19
2023-10-21T09:29:28.225Z,98906.94
2023-10-21T09:33:37.583Z,98907.13
2023-10-21T09:37:52.707Z,98888.50
2023-10-21T09:42:08.022Z,98925.34
2023-10-21T09:46:19.741Z,98929.41
2023-10-21T09:50:27.746Z,98904.25
2023-10-21T09:54:40.686Z,98933.47
2023-10-21T09:58:50.494Z,98911.00
2023-10-21T10:03:01.553Z,98916.75
2023-10-21T10:07:29.387Z,98960.28
2023-10-21T10:11:46.486Z,98896.81
2023-10-21T10:15:54.597Z,98914.81
2023-10-21T10:20:02.485Z,98961.91
2023-10-21T10:24:11.507Z,98933.59
2023-10-21T10:28:18.771Z,98935.19
2023-10-21T10:32:27.482Z,98921.34
2023-10-21T10:36:36.648Z,98942.44
2023-10-21T10:40:52.536Z,98964.69
2023-10-21T10:45:14.794Z,98973.59
2023-10-21T10:49:17.567Z,98915.88
2023-10-21T10:53:29.517Z,98943.91
2023-10-21T10:57:31.392Z,98941.97
2023-10-21T11:01:39.548Z,98913.47
2023-10-21T11:05:48.501Z,98919.34
2023-10-21T11:10:09.765Z,98938.38
2023-10-21T11:14:20.227Z,98951.81
2023-10-21T11:18:29.632Z,98913.00
2023-10-21T11:22:31.046Z,98874.75
2023-10-21T11:26:39.765Z,98895.41
2023-10-21T11:30:51.571Z,98899.91
2023-10-21T11:34:53.264Z,98906.06
2023-10-21T11:39:01.516Z,98860.75
2023-10-21T11:43:13.522Z,98919.72
2023-10-21T11:47:16.983Z,98932.13
2023-10-21T11:51:25.643Z,98902.84
2023-10-21T11:55:49.984Z,98935.00
2023-10-21T11:59:58.498Z,98931.72
2023-10-21T12:04:06.578Z,98904.03
2023-10-21T12:08:43.166Z,98903.38
2023-10-21T12:13:09.494Z,98941.72
2023-10-21T12:17:32.603Z,98974.84
2023-10-21T12:21:52.952Z,98931.78
2023-10-21T12:26:19.610Z,98914.56
2023-10-21T12:30:48.156Z,98879.66
2023-10-21T12:35:14.751Z,98895.31
2023-10-21T12:49:41.746Z,98865.88
2023-10-21T12:54:13.481Z,98896.78
2023-10-21T12:58:15.805Z,98916.56
2023-10-21T13:02:23.555Z,98968.34
2023-10-21T13:06:31.646Z,98939.00
2023-10-21T13:10:40.598Z,98894.63
2023-10-21T13:14:48.680Z,98968.97
2023-10-21T13:18:50.202Z,98875.25
2023-10-21T13:23:05.604Z,98911.69
2023-10-21T13:27:13.658Z,98960.63
2023-10-21T13:31:21.649Z,98999.13
2023-10-21T13:35:25.316Z,98944.16
2023-10-21T13:40:17.625Z,98960.25
2023-10-21T13:44:35.663Z,98974.22
2023-10-21T13:48:44.687Z,98936.09
2023-10-21T13:53:18.605Z,98983.22
2023-10-21T13:57:26.589Z,98969.06
2023-10-21T14:01:34.668Z,98992.59
2023-10-21T14:16:02.690Z,99052.31
2023-10-21T14:20:18.571Z,99017.50
2023-10-21T14:24:26.687Z,98999.13
2023-10-21T14:28:36.770Z,99016.22
2023-10-21T14:37:49.621Z,99076.75
2023-10-21T14:42:04.657Z,99064.47
2023-10-21T14:50:58.631Z,99116.41
2023-10-21T14:55:00.376Z,99134.25
2023-10-21T15:04:22.721Z,99131.16
2023-10-21T15:08:38.647Z,99149.63
2023-10-21T15:12:54.838Z,99135.28
2023-10-21T15:17:03.609Z,99143.09
2023-10-21T15:21:06.875Z,99182.00
2023-10-21T15:25:25.690Z,99172.97
2023-10-21T15:29:33.590Z,99170.13
2023-10-21T15:33:42.046Z,99176.50
2023-10-21T15:37:46.349Z,99176.91
2023-10-21T15:41:57.638Z,99217.66
2023-10-21T15:46:13.694Z,99226.47
2023-10-21T15:50:28.826Z,99225.59
2023-10-21T15:54:50.679Z,99246.91
2023-10-21T15:58:52.517Z,99267.78
2023-10-21T16:03:00.765Z,99236.44
2023-10-21T16:07:23.560Z,99254.38
2023-10-21T16:11:33.688Z,99275.69
2023-10-21T16:15:35.526Z,99296.38
2023-10-21T16:19:43.691Z,99293.63
2023-10-21T16:33:17.848Z,99334.66
2023-10-21T16:37:53.717Z,99353.88
2023-10-21T16:42:02.471Z,99342.75
2023-10-21T16:46:12.789Z,99351.75
2023-10-21T16:50:15.303Z,99357.19
2023-10-21T16:54:30.620Z,99377.25
2023-10-21T16:58:45.669Z,99369.84
2023-10-21T17:02:53.792Z,99375.59
2023-10-21T17:07:01.801Z,99376.53
2023-10-21T17:11:11.799Z,99392.47
2023-10-21T17:15:19.923Z,99387.09
2023-10-21T17:19:27.840Z,99381.34
2023-10-21T17:23:35.697Z,99372.56
2023-10-21T17:27:50.831Z,99369.78
2023-10-21T17:31:58.688Z,99333.88
2023-10-21T17:36:00.223Z,99383.88
2023-10-21T17:40:35.623Z,99382.22
2023-10-21T17:44:57.646Z,99376.25
2023-10-21T17:49:05.781Z,99362.47
2023-10-21T17:53:13.685Z,99360.25
2023-10-21T17:57:22.632Z,99381.78
2023-10-21T18:05:54.641Z,99371.97
2023-10-21T18:09:56.318Z,99370.13
2023-10-21T18:14:04.711Z,99388.31
2023-10-21T18:18:12.775Z,99386.47
2023-10-21T18:22:14.853Z,99383.78
2023-10-21T18:26:22.729Z,99383.81
2023-10-21T18:30:30.778Z,99372.53
2023-10-21T18:34:40.852Z,99376.44
2023-10-21T18:39:02.627Z,99371.25
2023-10-21T18:43:21.709Z,99399.13
2023-10-21T18:47:59.856Z,99381.25
2023-10-21T18:52:08.269Z,99395.81
2023-10-21T18:56:17.694Z,99398.53
2023-10-21T19:00:32.722Z,99375.13
2023-10-21T19:04:41.804Z,99405.47
2023-10-21T19:08:49.739Z,99381.75
2023-10-21T19:12:58.687Z,99409.97
2023-10-21T19:17:00.476Z,99401.38
2023-10-21T19:21:12.662Z,99401.31
2023-10-21T19:25:20.672Z,99372.66
2023-10-21T19:29:28.724Z,99379.22
2023-10-21T19:33:36.743Z,99394.16
2023-10-21T19:37:59.660Z,99400.94
2023-10-21T19:42:07.773Z,99371.63
2023-10-21T19:46:17.854Z,99387.66
2023-10-21T19:50:25.665Z,99375.31
2023-10-21T19:54:51.701Z,99381.78
2023-10-21T19:59:06.861Z,99388.75
2023-10-21T20:03:15.866Z,99411.94
2023-10-21T20:07:23.713Z,99414.06
2023-10-21T20:11:31.717Z,99440.44
2023-10-21T20:15:39.785Z,99437.25
2023-10-21T20:19:47.653Z,99425.63
2023-10-21T20:23:55.669Z,99432.41
2023-10-21T20:28:03.685Z,99435.88
2023-10-21T20:32:12.719Z,99427.97
2023-10-21T20:36:28.674Z,99412.13
2023-10-21T20:40:50.763Z,99419.72
2023-10-21T20:44:59.083Z,99439.94
2023-10-21T20:49:06.686Z,99427.00
2023-10-21T20:53:08.456Z,99435.78
2023-10-21T20:57:16.807Z,99443.44
2023-10-21T21:01:34.648Z,99434.31
2023-10-21T21:05:39.159Z,99443.19
2023-10-21T21:09:50.161Z,99419.88
2023-10-21T21:13:58.699Z,99426.09
2023-10-21T21:18:02.969Z,99450.50
2023-10-21T21:22:11.960Z,99421.34
2023-10-21T21:26:26.631Z,99432.84
2023-10-21T21:30:35.129Z,99445.91
2023-10-21T21:34:43.686Z,99444.09
2023-10-21T21:38:46.145Z,99434.88
2023-10-21T21:42:54.733Z,99430.19
2023-10-21T21:47:42.725Z,99432.75
2023-10-21T21:52:05.653Z,99434.56
2023-10-21T21:56:14.696Z,99414.88
2023-10-21T22:00:34.958Z,99416.53
2023-10-21T22:05:18.685Z,99426.78
2023-10-21T22:09:35.953Z,99442.59
2023-10-21T22:13:44.614Z,99458.25
2023-10-21T22:17:52.907Z,99468.03
2023-10-21T22:21:54.674Z,99443.97
2023-10-21T22:26:02.618Z,99468.59
2023-10-21T22:30:07.636Z,99467.75
2023-10-21T22:34:15.728Z,99488.25
2023-10-21T22:38:37.751Z,99485.97
2023-10-21T22:42:45.722Z,99454.22
2023-10-21T22:46:53.655Z,99481.50
2023-10-21T22:51:01.972Z,99473.63
2023-10-21T22:55:10.697Z,99493.56
2023-10-21T22:59:12.267Z,99491.63
2023-10-21T23:03:21.837Z,99456.06
2023-10-21T23:07:29.686Z,99485.22
2023-10-21T23:11:37.725Z,99487.34
2023-10-21T23:15:52.717Z,99487.59
2023-10-21T23:20:00.720Z,99477.97
2023-10-21T23:24:10.753Z,99488.81
2023-10-21T23:28:12.846Z,99479.63
2023-10-21T23:32:20.683Z,99493.63
2023-10-21T23:36:28.697Z,99504.69
2023-10-21T23:40:41.079Z,99503.31
2023-10-21T23:44:48.734Z,99509.00
2023-10-21T23:49:03.769Z,99496.47
2023-10-21T23:53:13.911Z,99504.69
2023-10-21T23:57:22.877Z,99519.63
